createdAt,value
2022-08-25T00:00:44.045Z,39.13
2022-08-25T00:01:44.676Z,37.60
2022-08-25T00:02:56.108Z,37.10
2022-08-25T00:03:45.050Z,37.16
2022-08-25T00:04:44.023Z,37.18
2022-08-25T00:05:44.038Z,37.76
2022-08-25T00:06:44.021Z,37.71
2022-08-25T00:07:44.000Z,38.77
2022-08-25T00:08:43.979Z,38.61
2022-08-25T00:09:43.983Z,37.20
2022-08-25T00:10:43.981Z,38.69
2022-08-25T00:11:45.038Z,37.82
2022-08-25T00:12:43.962Z,37.15
2022-08-25T00:13:43.953Z,37.28
2022-08-25T00:14:43.940Z,37.17
2022-08-25T00:15:44.039Z,37.95
2022-08-25T00:16:43.969Z,38.12
2022-08-25T00:17:43.928Z,38.44
2022-08-25T00:18:43.928Z,37.14
2022-08-25T00:19:43.910Z,38.26
2022-08-25T00:20:48.785Z,37.45
2022-08-25T00:21:44.934Z,40.42
2022-08-25T00:22:43.895Z,41.31
2022-08-25T00:23:43.883Z,37.73
2022-08-25T00:24:43.887Z,37.24
2022-08-25T00:25:43.866Z,37.10
2022-08-25T00:26:43.887Z,37.82
2022-08-25T00:27:43.851Z,37.86
2022-08-25T00:28:43.871Z,39.74
2022-08-25T00:29:43.843Z,38.10
2022-08-25T00:30:43.861Z,37.92
2022-08-25T00:31:43.939Z,37.23
2022-08-25T00:32:43.811Z,37.28
2022-08-25T00:33:45.863Z,37.47
2022-08-25T00:34:43.809Z,39.66
2022-08-25T00:35:43.800Z,37.32
2022-08-25T00:36:43.863Z,37.25
2022-08-25T00:37:43.780Z,37.37
2022-08-25T00:38:43.778Z,37.27
2022-08-25T00:39:43.773Z,37.31
2022-08-25T00:40:44.755Z,39.89
2022-08-25T00:41:43.751Z,37.71
2022-08-25T00:42:43.765Z,37.56
2022-08-25T00:43:43.746Z,39.11
2022-08-25T00:44:43.735Z,39.36
2022-08-25T00:45:43.723Z,37.39
2022-08-25T00:46:43.790Z,38.15
2022-08-25T00:47:43.732Z,39.07
2022-08-25T00:48:43.741Z,37.27
2022-08-25T00:49:43.696Z,37.12
2022-08-25T00:50:43.693Z,37.98
2022-08-25T00:51:43.711Z,37.91
2022-08-25T00:52:43.714Z,37.39
2022-08-25T00:53:43.669Z,37.15
2022-08-25T00:54:43.665Z,37.18
2022-08-25T00:55:43.668Z,40.51
2022-08-25T00:56:43.651Z,38.60
2022-08-25T00:57:43.663Z,37.64
2022-08-25T00:58:43.638Z,37.65
2022-08-25T00:59:43.631Z,40.18
2022-08-25T01:00:43.620Z,38.21
2022-08-25T01:01:44.378Z,37.64
2022-08-25T01:02:43.678Z,37.56
2022-08-25T01:03:43.605Z,37.36
2022-08-25T01:04:49.199Z,37.43
2022-08-25T01:05:45.582Z,37.61
2022-08-25T01:06:43.587Z,37.47
2022-08-25T01:07:44.748Z,37.49
2022-08-25T01:08:43.561Z,37.52
2022-08-25T01:09:43.585Z,37.45
2022-08-25T01:10:43.543Z,37.57
2022-08-25T01:11:43.537Z,37.69
2022-08-25T01:12:43.584Z,37.36
2022-08-25T01:13:43.525Z,37.40
2022-08-25T01:14:43.517Z,37.49
2022-08-25T01:15:43.535Z,37.35
2022-08-25T01:16:43.499Z,37.24
2022-08-25T01:17:43.560Z,37.85
2022-08-25T01:18:43.496Z,38.21
2022-08-25T01:19:43.520Z,37.84
2022-08-25T01:20:43.479Z,38.41
2022-08-25T01:21:43.471Z,38.80
2022-08-25T01:22:43.470Z,37.26
2022-08-25T01:23:43.480Z,37.41
2022-08-25T01:24:43.452Z,39.08
2022-08-25T01:25:43.445Z,37.42
2022-08-25T01:26:43.439Z,37.59
2022-08-25T01:27:43.442Z,38.66
2022-08-25T01:28:43.453Z,37.85
2022-08-25T01:29:43.412Z,39.01
2022-08-25T01:30:43.464Z,37.92
2022-08-25T01:31:43.419Z,37.70
2022-08-25T01:32:43.394Z,37.52
2022-08-25T01:33:43.410Z,37.99
2022-08-25T01:34:43.404Z,39.68
2022-08-25T01:35:43.372Z,38.17
2022-08-25T01:36:43.351Z,37.96
2022-08-25T01:37:43.366Z,39.99
2022-08-25T01:38:43.377Z,38.55
2022-08-25T01:39:43.347Z,38.17
2022-08-25T01:40:43.346Z,37.99
2022-08-25T01:41:43.327Z,40.48
2022-08-25T01:42:43.327Z,39.57
2022-08-25T01:43:43.359Z,38.23
2022-08-25T01:44:43.311Z,38.31
2022-08-25T01:45:43.350Z,40.38
2022-08-25T01:46:43.295Z,39.07
2022-08-25T01:47:43.290Z,37.94
2022-08-25T01:48:43.360Z,38.13
2022-08-25T01:49:43.281Z,37.83
2022-08-25T01:50:43.270Z,38.30
2022-08-25T01:51:43.276Z,38.04
2022-08-25T01:52:43.271Z,37.87
2022-08-25T01:53:43.258Z,38.84
2022-08-25T01:54:43.273Z,38.04
2022-08-25T01:55:43.229Z,38.05
2022-08-25T01:56:43.230Z,38.25
2022-08-25T01:57:43.220Z,38.71
2022-08-25T01:58:43.224Z,38.43
2022-08-25T01:59:43.257Z,38.86
2022-08-25T02:00:43.214Z,38.26
2022-08-25T02:01:43.232Z,38.30
2022-08-25T02:02:43.553Z,38.58
2022-08-25T02:03:43.194Z,42.20
2022-08-25T02:04:44.615Z,38.40
2022-08-25T02:05:43.171Z,41.05
2022-08-25T02:06:43.161Z,39.46
2022-08-25T02:07:43.162Z,39.56
2022-08-25T02:08:43.150Z,38.08
2022-08-25T02:09:43.165Z,39.50
2022-08-25T02:10:43.138Z,38.89
2022-08-25T02:11:43.137Z,38.37
2022-08-25T02:12:43.121Z,39.87
2022-08-25T02:13:43.116Z,39.65
2022-08-25T02:14:43.126Z,39.24
2022-08-25T02:15:43.112Z,38.41
2022-08-25T02:16:43.128Z,38.96
2022-08-25T02:17:43.088Z,38.33
2022-08-25T02:18:43.093Z,38.25
2022-08-25T02:19:43.115Z,39.62
2022-08-25T02:20:43.058Z,38.94
2022-08-25T02:21:43.053Z,38.08
2022-08-25T02:22:45.016Z,38.71
2022-08-25T02:23:44.042Z,37.99
2022-08-25T02:24:43.062Z,38.01
2022-08-25T02:25:43.253Z,38.28
2022-08-25T02:26:43.022Z,40.79
2022-08-25T02:27:43.016Z,39.91
2022-08-25T02:28:43.013Z,39.05
2022-08-25T02:29:43.008Z,38.78
2022-08-25T02:30:43.071Z,38.82
2022-08-25T02:31:42.996Z,39.23
2022-08-25T02:32:42.992Z,38.70
2022-08-25T02:33:42.984Z,38.21
2022-08-25T02:34:42.976Z,40.19
2022-08-25T02:35:42.978Z,40.71
2022-08-25T02:36:42.960Z,39.65
2022-08-25T02:37:42.952Z,40.10
2022-08-25T02:38:42.937Z,38.52
2022-08-25T02:39:42.928Z,39.59
2022-08-25T02:40:42.934Z,39.38
2022-08-25T02:41:42.908Z,40.39
2022-08-25T02:42:43.917Z,39.92
2022-08-25T02:43:42.911Z,42.03
2022-08-25T02:44:42.914Z,41.77
2022-08-25T02:45:42.945Z,39.53
2022-08-25T02:46:42.889Z,41.79
2022-08-25T02:47:42.892Z,40.94
2022-08-25T02:48:42.872Z,40.97
2022-08-25T02:49:42.866Z,41.41
2022-08-25T02:50:42.901Z,40.68
2022-08-25T02:51:42.855Z,38.71
2022-08-25T02:52:42.843Z,38.78
2022-08-25T02:53:42.843Z,38.25
2022-08-25T02:54:42.825Z,42.18
2022-08-25T02:55:42.876Z,39.07
2022-08-25T02:56:42.801Z,39.94
2022-08-25T02:57:43.809Z,39.25
2022-08-25T02:58:42.809Z,38.20
2022-08-25T02:59:42.798Z,40.60
2022-08-25T03:00:42.833Z,39.41
2022-08-25T03:01:43.629Z,41.81
2022-08-25T03:02:42.784Z,38.94
2022-08-25T03:03:43.501Z,38.73
2022-08-25T03:04:42.828Z,42.11
2022-08-25T03:05:42.746Z,40.49
2022-08-25T03:06:42.768Z,38.96
2022-08-25T03:07:43.741Z,42.26
2022-08-25T03:08:42.726Z,42.69
2022-08-25T03:09:42.750Z,38.53
2022-08-25T03:10:42.717Z,39.34
2022-08-25T03:11:42.737Z,39.93
2022-08-25T03:12:42.712Z,39.14
2022-08-25T03:13:42.689Z,41.72
2022-08-25T03:14:43.275Z,42.08
2022-08-25T03:15:42.687Z,42.94
2022-08-25T03:16:42.938Z,39.76
2022-08-25T03:17:45.607Z,43.51
2022-08-25T03:18:42.664Z,42.53
2022-08-25T03:19:42.655Z,40.69
2022-08-25T03:20:42.651Z,40.71
2022-08-25T03:21:42.655Z,43.24
2022-08-25T03:22:42.632Z,41.34
2022-08-25T03:23:42.620Z,41.45
2022-08-25T03:24:42.609Z,40.44
2022-08-25T03:25:42.608Z,41.20
2022-08-25T03:26:42.649Z,42.31
2022-08-25T03:27:42.598Z,40.13
2022-08-25T03:28:42.590Z,42.80
2022-08-25T03:29:42.589Z,39.76
2022-08-25T03:30:42.581Z,39.24
2022-08-25T03:31:42.694Z,41.48
2022-08-25T03:32:42.566Z,41.36
2022-08-25T03:33:42.561Z,41.25
2022-08-25T03:34:42.545Z,40.84
2022-08-25T03:35:42.545Z,41.95
2022-08-25T03:36:42.542Z,42.17
2022-08-25T03:37:42.555Z,39.49
2022-08-25T03:38:42.517Z,40.12
2022-08-25T03:39:42.569Z,42.44
2022-08-25T03:40:42.507Z,43.66
2022-08-25T03:41:42.501Z,42.14
2022-08-25T03:42:44.988Z,42.01
2022-08-25T03:43:43.493Z,41.29
2022-08-25T03:44:42.467Z,41.63
2022-08-25T03:45:42.507Z,43.07
2022-08-25T03:46:42.968Z,42.51
2022-08-25T03:47:42.495Z,40.69
2022-08-25T03:48:42.445Z,42.55
2022-08-25T03:49:42.448Z,42.85
2022-08-25T03:50:42.438Z,44.04
2022-08-25T03:51:43.430Z,42.62
2022-08-25T03:52:42.882Z,40.45
2022-08-25T03:53:42.408Z,42.58
2022-08-25T03:54:42.415Z,42.56
2022-08-25T03:55:42.404Z,42.49
2022-08-25T03:56:42.394Z,42.26
2022-08-25T03:57:42.417Z,43.56
2022-08-25T03:58:42.384Z,42.78
2022-08-25T03:59:42.369Z,42.15
2022-08-25T04:00:42.517Z,41.43
2022-08-25T04:01:42.404Z,42.09
2022-08-25T04:02:42.434Z,40.59
2022-08-25T04:03:42.449Z,42.56
2022-08-25T04:04:42.344Z,43.93
2022-08-25T04:05:42.328Z,41.26
2022-08-25T04:06:42.325Z,41.72
2022-08-25T04:07:42.330Z,41.53
2022-08-25T04:08:42.334Z,41.47
2022-08-25T04:09:42.303Z,41.49
2022-08-25T04:10:42.375Z,42.01
2022-08-25T04:11:42.704Z,42.21
2022-08-25T04:12:42.283Z,42.16
2022-08-25T04:13:42.295Z,42.67
2022-08-25T04:14:43.266Z,43.72
2022-08-25T04:15:42.252Z,42.72
2022-08-25T04:16:42.315Z,42.97
2022-08-25T04:17:42.244Z,40.85
2022-08-25T04:18:42.260Z,42.61
2022-08-25T04:19:42.239Z,42.83
2022-08-25T04:20:46.378Z,44.25
2022-08-25T04:21:43.217Z,44.16
2022-08-25T04:22:44.939Z,43.49
2022-08-25T04:23:42.219Z,45.23
2022-08-25T04:24:42.197Z,43.26
2022-08-25T04:25:42.403Z,43.10
2022-08-25T04:26:42.189Z,42.08
2022-08-25T04:27:42.174Z,43.72
2022-08-25T04:28:42.207Z,43.38
2022-08-25T04:29:42.157Z,45.14
2022-08-25T04:30:42.163Z,45.58
2022-08-25T04:31:42.232Z,43.66
2022-08-25T04:32:42.144Z,42.91
2022-08-25T04:33:42.161Z,43.80
2022-08-25T04:34:42.120Z,42.78
2022-08-25T04:35:42.129Z,43.95
2022-08-25T04:36:42.109Z,44.22
2022-08-25T04:37:42.105Z,45.63
2022-08-25T04:38:42.122Z,42.77
2022-08-25T04:39:42.086Z,42.31
2022-08-25T04:40:42.085Z,44.80
2022-08-25T04:41:42.070Z,44.70
2022-08-25T04:42:42.078Z,44.95
2022-08-25T04:43:42.088Z,44.01
2022-08-25T04:44:42.055Z,44.81
2022-08-25T04:45:42.109Z,44.15
2022-08-25T04:46:42.038Z,41.78
2022-08-25T04:47:42.028Z,45.33
2022-08-25T04:48:42.065Z,45.27
2022-08-25T04:49:42.020Z,44.32
2022-08-25T04:50:42.027Z,42.50
2022-08-25T04:51:42.010Z,41.97
2022-08-25T04:52:41.993Z,44.84
2022-08-25T04:53:42.017Z,44.22
2022-08-25T04:54:41.982Z,42.09
2022-08-25T04:55:41.973Z,45.70
2022-08-25T04:56:41.966Z,42.82
2022-08-25T04:57:41.960Z,42.45
2022-08-25T04:58:41.977Z,44.84
2022-08-25T04:59:41.941Z,44.73
2022-08-25T05:00:42.013Z,42.83
2022-08-25T05:01:41.927Z,43.07
2022-08-25T05:02:41.923Z,44.39
2022-08-25T05:03:41.950Z,43.78
2022-08-25T05:04:41.951Z,41.22
2022-08-25T05:05:41.934Z,43.57
2022-08-25T05:06:41.889Z,44.21
2022-08-25T05:07:41.906Z,42.71
2022-08-25T05:08:41.909Z,43.94
2022-08-25T05:09:41.895Z,45.37
2022-08-25T05:10:42.440Z,44.11
2022-08-25T05:11:41.867Z,44.17
2022-08-25T05:12:41.867Z,45.56
2022-08-25T05:13:41.880Z,44.90
2022-08-25T05:14:41.837Z,42.00
2022-08-25T05:15:41.834Z,42.13
2022-08-25T05:16:41.889Z,41.80
2022-08-25T05:17:41.818Z,43.57
2022-08-25T05:18:41.842Z,42.07
2022-08-25T05:19:41.804Z,44.52
2022-08-25T05:20:41.797Z,43.11
2022-08-25T05:21:41.803Z,44.40
2022-08-25T05:22:41.787Z,43.63
2022-08-25T05:23:41.800Z,44.29
2022-08-25T05:24:41.787Z,42.27
2022-08-25T05:25:41.770Z,43.02
2022-08-25T05:26:41.766Z,44.30
2022-08-25T05:27:41.759Z,44.61
2022-08-25T05:28:41.771Z,42.46
2022-08-25T05:29:41.737Z,41.44
2022-08-25T05:30:41.724Z,46.26
2022-08-25T05:31:44.897Z,43.71
2022-08-25T05:32:43.720Z,42.68
2022-08-25T05:33:41.754Z,44.10
2022-08-25T05:34:41.710Z,44.86
2022-08-25T05:35:41.698Z,44.99
2022-08-25T05:36:42.699Z,43.18
2022-08-25T05:37:41.748Z,42.57
2022-08-25T05:38:42.681Z,43.07
2022-08-25T05:39:41.680Z,41.44
2022-08-25T05:40:41.667Z,41.27
2022-08-25T05:41:41.655Z,43.26
2022-08-25T05:42:41.647Z,44.17
2022-08-25T05:43:42.733Z,43.18
2022-08-25T05:44:41.645Z,41.80
2022-08-25T05:45:41.683Z,42.92
2022-08-25T05:46:41.626Z,43.28
2022-08-25T05:47:41.620Z,42.70
2022-08-25T05:48:41.677Z,40.78
2022-08-25T05:49:41.622Z,42.42
2022-08-25T05:50:41.590Z,44.16
2022-08-25T05:51:41.590Z,41.77
2022-08-25T05:52:41.595Z,43.26
2022-08-25T05:53:41.618Z,44.49
2022-08-25T05:54:41.612Z,44.38
2022-08-25T05:55:41.567Z,40.58
2022-08-25T05:56:41.564Z,40.71
2022-08-25T05:57:41.553Z,42.44
2022-08-25T05:58:41.547Z,40.98
2022-08-25T05:59:41.559Z,42.51
2022-08-25T06:00:41.576Z,40.92
2022-08-25T06:01:43.409Z,40.37
2022-08-25T06:02:41.523Z,41.32
2022-08-25T06:03:41.590Z,41.24
2022-08-25T06:04:41.524Z,41.97
2022-08-25T06:05:41.494Z,41.71
2022-08-25T06:06:41.488Z,40.21
2022-08-25T06:07:41.467Z,40.95
2022-08-25T06:08:41.503Z,41.28
2022-08-25T06:09:41.500Z,41.80
2022-08-25T06:10:41.447Z,43.89
2022-08-25T06:11:41.442Z,38.85
2022-08-25T06:12:41.448Z,40.23
2022-08-25T06:13:41.452Z,40.24
2022-08-25T06:14:41.448Z,41.74
2022-08-25T06:15:41.427Z,41.81
2022-08-25T06:16:41.450Z,39.80
2022-08-25T06:17:41.402Z,40.28
2022-08-25T06:18:41.427Z,40.11
2022-08-25T06:19:41.477Z,40.73
2022-08-25T06:20:42.220Z,39.18
2022-08-25T06:21:41.389Z,39.77
2022-08-25T06:22:41.406Z,45.25
2022-08-25T06:23:41.408Z,41.31
2022-08-25T06:24:41.423Z,42.50
2022-08-25T06:25:41.359Z,40.02
2022-08-25T06:26:41.343Z,42.43
2022-08-25T06:27:41.341Z,40.61
2022-08-25T06:28:41.343Z,41.09
2022-08-25T06:29:41.335Z,40.23
2022-08-25T06:30:42.312Z,40.82
2022-08-25T06:31:41.377Z,40.86
2022-08-25T06:32:41.364Z,39.45
2022-08-25T06:33:41.319Z,40.71
2022-08-25T06:34:41.326Z,41.09
2022-08-25T06:35:41.280Z,40.78
2022-08-25T06:36:42.251Z,40.40
2022-08-25T06:37:41.273Z,40.56
2022-08-25T06:38:41.276Z,42.04
2022-08-25T06:39:41.289Z,39.72
2022-08-25T06:40:41.243Z,42.42
2022-08-25T06:41:41.241Z,41.29
2022-08-25T06:42:41.227Z,39.79
2022-08-25T06:43:47.336Z,42.67
2022-08-25T06:44:43.328Z,39.70
2022-08-25T06:45:41.273Z,41.60
2022-08-25T06:46:41.430Z,42.08
2022-08-25T06:47:41.211Z,40.90
2022-08-25T06:48:41.241Z,40.52
2022-08-25T06:49:41.210Z,40.61
2022-08-25T06:50:42.245Z,38.31
2022-08-25T06:51:41.199Z,37.36
2022-08-25T06:52:41.165Z,40.56
2022-08-25T06:53:41.145Z,39.92
2022-08-25T06:54:41.192Z,38.94
2022-08-25T06:55:41.156Z,41.12
2022-08-25T06:56:41.140Z,42.50
2022-08-25T06:57:41.126Z,40.16
2022-08-25T06:58:41.107Z,39.53
2022-08-25T06:59:41.506Z,40.38
2022-08-25T07:00:42.197Z,39.39
2022-08-25T07:01:41.273Z,39.76
2022-08-25T07:02:41.190Z,41.82
2022-08-25T07:03:41.099Z,40.24
2022-08-25T07:04:41.111Z,38.97
2022-08-25T07:05:43.850Z,41.42
2022-08-25T07:06:42.067Z,38.85
2022-08-25T07:07:42.901Z,39.13
2022-08-25T07:08:41.065Z,40.39
2022-08-25T07:09:41.112Z,38.73
2022-08-25T07:10:41.045Z,38.36
2022-08-25T07:11:42.042Z,39.29
2022-08-25T07:12:41.023Z,37.64
2022-08-25T07:13:41.018Z,39.76
2022-08-25T07:14:42.495Z,40.62
2022-08-25T07:15:42.004Z,39.11
2022-08-25T07:16:41.748Z,37.57
2022-08-25T07:17:41.983Z,38.67
2022-08-25T07:18:41.190Z,40.18
2022-08-25T07:19:41.139Z,39.29
2022-08-25T07:20:40.983Z,38.89
2022-08-25T07:21:40.968Z,41.22
2022-08-25T07:22:41.147Z,38.34
2022-08-25T07:23:40.980Z,40.67
2022-08-25T07:24:40.939Z,39.87
2022-08-25T07:25:40.961Z,38.91
2022-08-25T07:26:41.011Z,40.69
2022-08-25T07:27:41.267Z,39.22
2022-08-25T07:28:47.501Z,38.92
2022-08-25T07:30:41.927Z,39.41
2022-08-25T07:31:40.958Z,41.21
2022-08-25T07:32:41.995Z,40.46
2022-08-25T07:33:40.864Z,41.38
2022-08-25T07:34:40.880Z,38.80
2022-08-25T07:35:40.913Z,40.21
2022-08-25T07:36:41.126Z,40.20
2022-08-25T07:37:49.615Z,39.72
2022-08-25T07:38:42.841Z,39.86
2022-08-25T07:39:40.844Z,38.46
2022-08-25T07:40:42.994Z,38.27
2022-08-25T07:41:40.828Z,37.39
2022-08-25T07:42:40.825Z,37.91
2022-08-25T07:43:40.808Z,37.04
2022-08-25T07:44:40.819Z,36.80
2022-08-25T07:45:49.292Z,38.75
2022-08-25T07:46:40.937Z,37.02
2022-08-25T07:47:40.791Z,38.83
2022-08-25T07:48:40.988Z,35.95
2022-08-25T07:49:40.763Z,39.86
2022-08-25T07:50:40.777Z,41.47
2022-08-25T07:51:40.786Z,39.81
2022-08-25T07:52:41.778Z,38.20
2022-08-25T07:53:40.751Z,37.68
2022-08-25T07:54:40.741Z,38.46
2022-08-25T07:55:40.744Z,41.33
2022-08-25T07:56:40.748Z,37.23
2022-08-25T07:57:40.729Z,36.33
2022-08-25T07:58:40.727Z,40.03
2022-08-25T07:59:40.779Z,40.10
2022-08-25T08:00:40.694Z,39.26
2022-08-25T08:01:40.916Z,42.36
2022-08-25T08:02:40.788Z,39.74
2022-08-25T08:03:51.193Z,38.24
2022-08-25T08:04:42.682Z,39.70
2022-08-25T08:05:40.806Z,37.47
2022-08-25T08:06:40.975Z,37.58
2022-08-25T08:07:42.020Z,36.17
2022-08-25T08:08:41.653Z,38.78
2022-08-25T08:09:40.929Z,38.42
2022-08-25T08:11:03.248Z,38.58
2022-08-25T08:11:50.483Z,36.74
2022-08-25T08:12:42.847Z,36.61
2022-08-25T08:13:41.506Z,36.25
2022-08-25T08:14:45.133Z,37.48
2022-08-25T08:15:40.627Z,35.30
2022-08-25T08:16:40.687Z,36.87
2022-08-25T08:17:40.617Z,39.21
2022-08-25T08:18:40.651Z,36.48
2022-08-25T08:19:44.820Z,36.58
2022-08-25T08:20:42.928Z,36.79
2022-08-25T08:21:40.567Z,39.52
2022-08-25T08:22:40.590Z,40.24
2022-08-25T08:23:40.563Z,37.07
2022-08-25T08:24:44.714Z,36.94
2022-08-25T08:25:41.517Z,41.12
2022-08-25T08:26:57.423Z,35.69
2022-08-25T08:27:42.544Z,36.78
2022-08-25T08:28:40.510Z,38.06
2022-08-25T08:29:40.568Z,35.76
2022-08-25T08:30:40.547Z,36.59
2022-08-25T08:31:41.617Z,37.01
2022-08-25T08:33:06.277Z,37.36
2022-08-25T08:33:42.559Z,39.28
2022-08-25T08:34:40.520Z,34.03
2022-08-25T08:35:40.479Z,34.01
2022-08-25T08:36:40.454Z,34.65
2022-08-25T08:37:40.537Z,37.43
2022-08-25T08:38:40.598Z,35.22
2022-08-25T08:39:40.531Z,33.84
2022-08-25T08:40:40.451Z,37.13
2022-08-25T08:42:09.475Z,36.89
2022-08-25T08:42:42.479Z,35.12
2022-08-25T08:43:40.445Z,36.84
2022-08-25T08:44:40.425Z,36.76
2022-08-25T08:45:43.849Z,34.92
2022-08-25T08:46:40.493Z,32.90
2022-08-25T08:47:40.459Z,37.45
2022-08-25T08:48:40.387Z,36.36
2022-08-25T08:49:40.384Z,36.59
2022-08-25T08:50:40.389Z,34.93
2022-08-25T08:51:40.346Z,38.48
2022-08-25T08:52:40.395Z,37.01
2022-08-25T08:53:40.319Z,34.05
2022-08-25T08:54:41.275Z,37.23
2022-08-25T08:55:40.345Z,35.84
2022-08-25T08:56:45.196Z,36.29
2022-08-25T08:57:40.614Z,34.57
2022-08-25T08:58:40.368Z,32.91
2022-08-25T08:59:40.294Z,35.26
2022-08-25T09:00:40.291Z,34.16
2022-08-25T09:01:40.337Z,34.67
2022-08-25T09:02:51.759Z,36.82
2022-08-25T09:03:41.340Z,36.15
2022-08-25T09:04:40.338Z,39.79
2022-08-25T09:05:44.933Z,34.41
2022-08-25T09:06:42.271Z,34.89
2022-08-25T09:07:42.095Z,33.40
2022-08-25T09:08:44.603Z,35.93
2022-08-25T09:09:40.223Z,34.48
2022-08-25T09:10:40.215Z,39.21
2022-08-25T09:11:40.208Z,36.36
2022-08-25T09:12:40.228Z,36.40
2022-08-25T09:13:40.215Z,35.46
2022-08-25T09:14:40.174Z,34.51
2022-08-25T09:15:41.279Z,37.62
2022-08-25T09:16:40.184Z,36.50
2022-08-25T09:17:40.160Z,35.79
2022-08-25T09:18:41.145Z,32.13
2022-08-25T09:19:42.343Z,36.39
2022-08-25T09:20:40.178Z,33.70
2022-08-25T09:21:40.224Z,35.56
2022-08-25T09:22:40.240Z,34.57
2022-08-25T09:23:40.159Z,35.46
2022-08-25T09:24:40.114Z,35.71
2022-08-25T09:25:53.391Z,37.56
2022-08-25T09:26:42.112Z,33.06
2022-08-25T09:27:40.133Z,31.42
2022-08-25T09:28:40.134Z,34.28
2022-08-25T09:29:40.083Z,36.42
2022-08-25T09:30:40.081Z,34.09
2022-08-25T09:31:40.185Z,33.28
2022-08-25T09:32:40.082Z,35.89
2022-08-25T09:33:40.135Z,32.85
2022-08-25T09:34:40.048Z,33.17
2022-08-25T09:35:40.078Z,34.11
2022-08-25T09:36:40.036Z,33.13
2022-08-25T09:37:40.079Z,32.40
2022-08-25T09:38:40.043Z,35.97
2022-08-25T09:39:40.173Z,31.12
2022-08-25T09:40:40.009Z,33.62
2022-08-25T09:41:40.237Z,35.25
2022-08-25T09:42:40.027Z,32.99
2022-08-25T09:43:39.984Z,30.66
2022-08-25T09:44:40.009Z,38.55
2022-08-25T09:45:40.016Z,35.13
2022-08-25T09:46:40.062Z,34.93
2022-08-25T09:47:40.016Z,35.40
2022-08-25T09:48:40.886Z,33.88
2022-08-25T09:49:39.985Z,35.75
2022-08-25T09:50:43.944Z,34.66
2022-08-25T09:51:43.054Z,36.96
2022-08-25T09:52:41.360Z,34.05
2022-08-25T09:53:39.939Z,34.85
2022-08-25T09:54:44.216Z,32.99
2022-08-25T09:55:40.989Z,28.49
2022-08-25T09:56:39.927Z,32.89
2022-08-25T09:57:39.923Z,33.90
2022-08-25T09:58:40.119Z,30.83
2022-08-25T09:59:39.960Z,30.60
2022-08-25T10:00:41.063Z,36.34
2022-08-25T10:01:39.947Z,33.69
2022-08-25T10:02:40.106Z,32.89
2022-08-25T10:03:40.142Z,29.97
2022-08-25T10:04:40.291Z,32.89
2022-08-25T10:05:39.872Z,33.49
2022-08-25T10:06:39.852Z,32.99
2022-08-25T10:07:39.913Z,40.80
2022-08-25T10:08:39.964Z,36.18
2022-08-25T10:09:39.850Z,28.95
2022-08-25T10:10:41.844Z,33.74
2022-08-25T10:11:39.825Z,27.79
2022-08-25T10:12:42.802Z,30.04
2022-08-25T10:13:39.829Z,31.43
2022-08-25T10:14:39.826Z,32.00
2022-08-25T10:15:39.868Z,34.42
2022-08-25T10:16:39.827Z,31.36
2022-08-25T10:17:39.800Z,32.33
2022-08-25T10:18:39.778Z,30.24
2022-08-25T10:19:39.849Z,31.85
2022-08-25T10:20:42.233Z,30.15
2022-08-25T10:21:39.794Z,33.01
2022-08-25T10:22:39.772Z,31.37
2022-08-25T10:23:39.870Z,30.29
2022-08-25T10:24:41.052Z,29.90
2022-08-25T10:25:39.864Z,36.46
2022-08-25T10:26:39.755Z,33.56
2022-08-25T10:27:39.729Z,32.97
2022-08-25T10:28:39.752Z,30.45
2022-08-25T10:29:40.933Z,31.06
2022-08-25T10:30:39.732Z,31.46
2022-08-25T10:31:41.397Z,34.29
2022-08-25T10:32:39.754Z,32.71
2022-08-25T10:33:39.719Z,33.94
2022-08-25T10:34:39.740Z,33.16
2022-08-25T10:35:39.701Z,28.82
2022-08-25T10:36:39.727Z,35.29
2022-08-25T10:37:39.676Z,34.25
2022-08-25T10:38:39.669Z,30.80
2022-08-25T10:39:40.462Z,32.63
2022-08-25T10:40:39.730Z,29.53
2022-08-25T10:41:39.684Z,31.96
2022-08-25T10:42:39.685Z,31.27
2022-08-25T10:43:39.647Z,32.12
2022-08-25T10:44:39.621Z,31.56
2022-08-25T10:45:39.642Z,33.44
2022-08-25T10:46:39.746Z,33.06
2022-08-25T10:47:39.602Z,33.09
2022-08-25T10:48:39.564Z,33.64
2022-08-25T10:49:39.569Z,33.64
2022-08-25T10:50:39.592Z,30.08
2022-08-25T10:51:41.609Z,30.38
2022-08-25T10:52:39.592Z,32.45
2022-08-25T10:53:39.587Z,31.30
2022-08-25T10:54:39.547Z,31.88
2022-08-25T10:55:40.322Z,32.60
2022-08-25T10:56:40.932Z,31.68
2022-08-25T10:57:39.569Z,31.75
2022-08-25T10:58:39.528Z,34.34
2022-08-25T10:59:39.541Z,30.93
2022-08-25T11:00:40.249Z,30.37
2022-08-25T11:01:44.086Z,29.23
2022-08-25T11:02:41.665Z,31.26
2022-08-25T11:03:39.536Z,30.80
2022-08-25T11:04:39.543Z,36.35
2022-08-25T11:05:39.549Z,30.77
2022-08-25T11:06:39.474Z,29.06
2022-08-25T11:07:39.489Z,32.28
2022-08-25T11:08:39.468Z,30.37
2022-08-25T11:09:40.197Z,30.93
2022-08-25T11:10:39.450Z,33.72
2022-08-25T11:11:39.433Z,33.66
2022-08-25T11:12:39.511Z,32.03
2022-08-25T11:13:39.426Z,34.12
2022-08-25T11:14:39.410Z,31.86
2022-08-25T11:15:41.463Z,32.59
2022-08-25T11:16:41.522Z,30.79
2022-08-25T11:17:39.405Z,35.00
2022-08-25T11:18:39.380Z,30.06
2022-08-25T11:19:39.373Z,32.70
2022-08-25T11:20:39.349Z,33.34
2022-08-25T11:21:39.394Z,31.99
2022-08-25T11:22:39.537Z,32.21
2022-08-25T11:23:39.368Z,35.35
2022-08-25T11:24:39.336Z,34.06
2022-08-25T11:25:39.469Z,37.31
2022-08-25T11:26:40.530Z,38.23
2022-08-25T11:27:39.359Z,32.20
2022-08-25T11:28:39.349Z,34.52
2022-08-25T11:29:39.531Z,33.13
2022-08-25T11:30:40.220Z,33.41
2022-08-25T11:31:39.293Z,30.13
2022-08-25T11:32:39.268Z,31.49
2022-08-25T11:33:39.348Z,34.72
2022-08-25T11:34:42.995Z,31.90
2022-08-25T11:35:40.285Z,33.33
2022-08-25T11:36:39.248Z,29.41
2022-08-25T11:37:39.221Z,31.40
2022-08-25T11:38:39.361Z,31.61
2022-08-25T11:39:40.315Z,30.22
2022-08-25T11:40:39.218Z,31.17
2022-08-25T11:41:39.216Z,32.76
2022-08-25T11:42:41.648Z,32.35
2022-08-25T11:43:40.564Z,28.36
2022-08-25T11:44:39.287Z,32.65
2022-08-25T11:45:40.259Z,31.84
2022-08-25T11:46:39.143Z,33.11
2022-08-25T11:47:39.414Z,31.06
2022-08-25T11:48:39.288Z,33.69
2022-08-25T11:49:39.685Z,33.17
2022-08-25T11:50:39.132Z,32.78
2022-08-25T11:51:39.361Z,33.78
2022-08-25T11:52:39.128Z,29.40
2022-08-25T11:53:42.211Z,32.43
2022-08-25T11:54:39.147Z,33.43
2022-08-25T11:55:39.153Z,31.88
2022-08-25T11:56:40.272Z,32.74
2022-08-25T11:57:39.688Z,34.89
2022-08-25T11:58:39.188Z,30.43
2022-08-25T11:59:39.093Z,31.22
2022-08-25T12:00:39.147Z,31.73
2022-08-25T12:01:39.386Z,30.51
2022-08-25T12:02:39.059Z,31.89
2022-08-25T12:03:39.649Z,30.67
2022-08-25T12:04:45.046Z,35.58
2022-08-25T12:05:40.083Z,33.33
2022-08-25T12:06:39.087Z,32.60
2022-08-25T12:07:39.034Z,31.36
2022-08-25T12:08:39.008Z,33.07
2022-08-25T12:09:39.010Z,33.06
2022-08-25T12:10:38.995Z,34.25
2022-08-25T12:11:38.970Z,36.10
2022-08-25T12:12:39.095Z,34.42
2022-08-25T12:13:38.986Z,35.77
2022-08-25T12:14:38.977Z,33.38
2022-08-25T12:15:39.037Z,34.55
2022-08-25T12:16:39.826Z,33.97
2022-08-25T12:17:39.742Z,34.08
2022-08-25T12:18:38.935Z,34.30
2022-08-25T12:19:39.976Z,34.51
2022-08-25T12:20:38.947Z,35.76
2022-08-25T12:21:38.951Z,35.37
2022-08-25T12:22:39.674Z,35.95
2022-08-25T12:23:39.865Z,35.63
2022-08-25T12:24:39.016Z,35.06
2022-08-25T12:25:39.865Z,33.99
2022-08-25T12:26:38.887Z,34.43
2022-08-25T12:27:38.852Z,33.19
2022-08-25T12:28:39.105Z,36.03
2022-08-25T12:29:39.884Z,34.93
2022-08-25T12:30:41.008Z,35.16
2022-08-25T12:31:39.843Z,35.40
2022-08-25T12:32:38.868Z,37.10
2022-08-25T12:33:38.816Z,37.99
2022-08-25T12:34:43.287Z,34.13
2022-08-25T12:35:39.842Z,35.23
2022-08-25T12:36:38.846Z,34.14
2022-08-25T12:37:38.914Z,34.23
2022-08-25T12:38:43.020Z,33.41
2022-08-25T12:39:39.937Z,34.87
2022-08-25T12:40:39.297Z,34.57
2022-08-25T12:41:38.921Z,31.34
2022-08-25T12:42:38.803Z,32.55
2022-08-25T12:43:38.751Z,31.49
2022-08-25T12:44:38.832Z,35.08
2022-08-25T12:45:38.799Z,34.65
2022-08-25T12:46:38.807Z,31.46
2022-08-25T12:47:40.839Z,32.64
2022-08-25T12:48:39.698Z,35.60
2022-08-25T12:49:38.701Z,33.31
2022-08-25T12:50:38.731Z,35.72
2022-08-25T12:51:38.667Z,34.43
2022-08-25T12:52:38.680Z,31.58
2022-08-25T12:53:38.740Z,34.50